Time;durP1;ratioP1;P1;durP2;ratioP2;P2;SDS_P1;SDS_P2;PMS_P1;PMS_P2;Temp;Humidity;BMP_temperature;BMP_pressure;BME280_temperature;BME280_humidity;BME280_pressure;Samples;Min_cycle;Max_cycle;Signal;HPM_P1;HPM_P2
2021/09/24 00:00:55;;;;;;;2.50;2.30;;;16.00;99.90;;;;;;5106080;28;20202;-54
2021/09/24 00:03:21;;;;;;;3.30;1.90;;;16.00;99.90;;;;;;5115086;28;20830;-53
2021/09/24 00:05:47;;;;;;;2.27;1.70;;;16.10;94.90;;;;;;5115096;28;20502;-55
2021/09/24 00:08:13;;;;;;;2.73;1.30;;;16.00;81.20;;;;;;5113265;28;20306;-55
2021/09/24 00:10:39;;;;;;;1.73;1.20;;;16.00;59.10;;;;;;5116083;27;20439;-55
2021/09/24 00:13:05;;;;;;;2.47;1.07;;;16.10;41.90;;;;;;5114933;28;20412;-54
2021/09/24 00:15:31;;;;;;;2.83;1.20;;;16.00;28.30;;;;;;5103671;28;20498;-55
2021/09/24 00:17:56;;;;;;;1.77;0.97;;;16.00;15.10;;;;;;5114655;28;20260;-54
2021/09/24 00:20:22;;;;;;;2.77;1.20;;;16.10;2.20;;;;;;5114893;28;20188;-54
2021/09/24 00:22:47;;;;;;;2.83;1.00;;;16.10;1.00;;;;;;5114587;28;20754;-54
2021/09/24 00:25:13;;;;;;;1.23;0.90;;;16.20;1.00;;;;;;5114905;28;20273;-54
2021/09/24 00:27:39;;;;;;;2.30;1.10;;;16.20;1.00;;;;;;5113942;28;20203;-55
2021/09/24 00:30:07;;;;;;;3.60;1.20;;;16.10;1.00;;;;;;5114475;28;20650;-54
2021/09/24 00:32:33;;;;;;;2.30;0.93;;;16.10;1.00;;;;;;5113870;28;20438;-56
2021/09/24 00:34:58;;;;;;;4.33;0.97;;;16.20;1.00;;;;;;5113601;28;20913;-55
2021/09/24 00:37:24;;;;;;;3.70;1.00;;;16.20;1.00;;;;;;5114556;28;20608;-55
2021/09/24 00:39:49;;;;;;;1.50;1.20;;;16.20;1.00;;;;;;5114498;28;20194;-55
2021/09/24 00:42:15;;;;;;;2.30;1.30;;;16.10;1.00;;;;;;5100912;28;20284;-55
2021/09/24 00:44:47;;;;;;;4.97;1.30;;;16.10;1.00;;;;;;5107027;28;20184;-55
2021/09/24 00:47:17;;;;;;;2.70;1.13;;;16.10;1.00;;;;;;5114134;28;20586;-54
2021/09/24 00:49:43;;;;;;;3.43;1.20;;;16.10;1.00;;;;;;5098295;28;20469;-54
2021/09/24 00:52:08;;;;;;;4.53;1.43;;;16.10;1.00;;;;;;5110690;28;20440;-55
2021/09/24 00:54:34;;;;;;;2.00;1.00;;;16.10;1.00;;;;;;5110002;28;20188;-54
2021/09/24 00:57:02;;;;;;;3.93;1.80;;;16.10;1.00;;;;;;5110086;28;20551;-59
2021/09/24 00:59:27;;;;;;;2.60;1.07;;;16.10;1.00;;;;;;5113904;28;21035;-55
2021/09/24 01:01:53;;;;;;;4.33;1.77;;;16.10;1.00;;;;;;5105683;28;20520;-55
2021/09/24 01:04:18;;;;;;;2.40;1.27;;;16.20;1.00;;;;;;5099556;28;20297;-54
2021/09/24 01:06:44;;;;;;;2.20;1.33;;;16.10;1.00;;;;;;5106729;28;20262;-54
2021/09/24 01:09:10;;;;;;;1.40;1.27;;;16.10;1.00;;;;;;5110270;28;20637;-54
2021/09/24 01:11:38;;;;;;;4.17;1.50;;;16.00;1.00;;;;;;5113723;28;20186;-55
2021/09/24 01:14:04;;;;;;;5.50;1.63;;;16.00;1.00;;;;;;5113843;28;20239;-55
2021/09/24 01:16:30;;;;;;;1.47;1.10;;;16.10;1.00;;;;;;5093410;28;20932;-54
2021/09/24 01:18:56;;;;;;;2.27;1.70;;;16.10;1.00;;;;;;5107450;28;20483;-55
2021/09/24 01:21:21;;;;;;;3.57;1.80;;;16.00;1.00;;;;;;5113371;28;20835;-54
2021/09/24 01:23:47;;;;;;;2.90;1.67;;;16.00;1.00;;;;;;5108772;28;20196;-55
2021/09/24 01:26:13;;;;;;;6.40;1.97;;;16.10;1.00;;;;;;5113307;28;20182;-54
2021/09/24 01:28:39;;;;;;;2.70;1.87;;;16.10;1.00;;;;;;5089276;28;20189;-56
2021/09/24 01:31:05;;;;;;;7.07;2.13;;;16.00;1.00;;;;;;5113631;27;20422;-55
2021/09/24 01:33:31;;;;;;;3.50;1.70;;;15.90;1.00;;;;;;5113272;28;20195;-54
2021/09/24 01:35:57;;;;;;;5.43;1.97;;;16.00;1.00;;;;;;5113255;28;20470;-56
2021/09/24 01:38:23;;;;;;;8.43;2.20;;;16.10;1.00;;;;;;5105376;28;20452;-54
2021/09/24 01:40:49;;;;;;;4.40;2.00;;;16.10;1.00;;;;;;5113065;28;20407;-55
2021/09/24 01:43:14;;;;;;;8.43;2.30;;;16.10;1.00;;;;;;5113113;28;20458;-55
2021/09/24 01:45:40;;;;;;;5.03;2.30;;;16.00;1.00;;;;;;5112953;28;20171;-55
2021/09/24 01:48:05;;;;;;;2.97;1.83;;;16.00;1.00;;;;;;5109375;28;20668;-55
2021/09/24 01:50:31;;;;;;;3.60;2.13;;;16.00;1.00;;;;;;5112541;28;20215;-55
2021/09/24 01:52:57;;;;;;;4.67;2.17;;;16.00;1.00;;;;;;5112810;28;20677;-54
2021/09/24 01:55:22;;;;;;;7.13;2.70;;;16.00;1.00;;;;;;5112949;28;20193;-55
2021/09/24 01:57:48;;;;;;;6.93;2.93;;;15.90;1.00;;;;;;5112773;28;20211;-55
2021/09/24 02:00:14;;;;;;;6.77;2.40;;;15.90;1.00;;;;;;5112836;28;20191;-54
2021/09/24 02:02:40;;;;;;;4.10;2.53;;;15.90;1.00;;;;;;5112301;28;20973;-54
2021/09/24 02:05:07;;;;;;;3.43;2.20;;;15.80;1.00;;;;;;5113065;28;20441;-55
2021/09/24 02:07:33;;;;;;;9.97;3.50;;;15.90;1.00;;;;;;5112638;28;20206;-56
2021/09/24 02:09:59;;;;;;;5.60;2.50;;;15.90;1.00;;;;;;5112681;28;20456;-55
2021/09/24 02:12:25;;;;;;;6.00;2.83;;;15.90;1.00;;;;;;5112807;28;20218;-54
2021/09/24 02:14:51;;;;;;;5.30;2.97;;;15.90;1.00;;;;;;5112674;28;20436;-54
2021/09/24 02:17:16;;;;;;;3.30;2.60;;;15.90;1.00;;;;;;5112670;28;20219;-54
2021/09/24 02:19:42;;;;;;;7.70;3.40;;;15.80;1.00;;;;;;5112508;28;20237;-55
2021/09/24 02:22:07;;;;;;;9.13;3.10;;;15.80;1.00;;;;;;5112659;28;20175;-55
2021/09/24 02:24:33;;;;;;;4.33;2.60;;;15.80;1.00;;;;;;5112756;28;20192;-54
2021/09/24 02:26:58;;;;;;;4.40;3.13;;;15.80;1.00;;;;;;5108414;28;20269;-54
2021/09/24 02:29:24;;;;;;;3.80;3.13;;;15.80;1.00;;;;;;5104831;28;20188;-54
2021/09/24 02:31:50;;;;;;;7.13;3.03;;;15.80;1.00;;;;;;5096005;28;20193;-55
2021/09/24 02:34:16;;;;;;;5.77;3.07;;;15.70;1.00;;;;;;5104608;28;20181;-54
2021/09/24 02:36:41;;;;;;;5.40;3.07;;;15.70;1.00;;;;;;5096422;28;20275;-54
2021/09/24 02:39:07;;;;;;;5.03;3.10;;;15.70;1.00;;;;;;5112658;28;20901;-53
2021/09/24 02:41:33;;;;;;;3.50;3.20;;;15.60;1.00;;;;;;5115067;28;20180;-54
2021/09/24 02:43:58;;;;;;;4.27;2.70;;;15.60;1.00;;;;;;5116401;28;20991;-55
2021/09/24 02:46:24;;;;;;;5.70;2.90;;;15.70;1.00;;;;;;5110765;28;20207;-54
2021/09/24 02:48:50;;;;;;;9.20;3.23;;;15.70;1.00;;;;;;5116276;28;20572;-54
2021/09/24 02:51:15;;;;;;;3.67;2.53;;;15.70;1.00;;;;;;5116414;28;20693;-55
2021/09/24 02:53:41;;;;;;;7.20;2.87;;;14.30;1.00;;;;;;5116462;28;20190;-54
2021/09/24 02:56:06;;;;;;;5.60;2.30;;;15.70;1.00;;;;;;5102679;28;20644;-55
2021/09/24 02:58:33;;;;;;;6.63;2.80;;;15.80;1.00;;;;;;5116326;28;20186;-55
2021/09/24 03:00:59;;;;;;;7.77;3.27;;;15.70;1.00;;;;;;5116239;28;20651;-55
2021/09/24 03:03:25;;;;;;;5.30;3.10;;;15.70;1.00;;;;;;5116067;28;20464;-54
2021/09/24 03:05:51;;;;;;;7.80;3.83;;;15.70;1.00;;;;;;5115902;28;20472;-55
2021/09/24 03:08:17;;;;;;;5.93;2.70;;;15.80;1.00;;;;;;5116340;28;20178;-55
2021/09/24 03:10:42;;;;;;;7.27;2.90;;;15.80;1.00;;;;;;5112898;28;20432;-55
2021/09/24 03:13:08;;;;;;;6.63;3.93;;;15.70;1.00;;;;;;5115748;28;20218;-54
2021/09/24 03:15:33;;;;;;;5.57;2.90;;;15.60;1.00;;;;;;5116217;28;20231;-54
2021/09/24 03:17:59;;;;;;;4.53;2.73;;;15.60;1.00;;;;;;5111543;28;20178;-55
2021/09/24 03:20:25;;;;;;;6.43;2.90;;;15.60;1.00;;;;;;5109525;28;20261;-55
2021/09/24 03:22:50;;;;;;;4.60;3.30;;;15.60;1.00;;;;;;5111875;28;20197;-54
2021/09/24 03:25:16;;;;;;;7.47;3.63;;;15.50;1.00;;;;;;5115230;28;20184;-54
2021/09/24 03:27:41;;;;;;;11.90;3.30;;;15.30;1.00;;;;;;5103683;28;20202;-54
2021/09/24 03:30:08;;;;;;;6.37;3.03;;;15.30;1.00;;;;;;5115492;28;20176;-55
2021/09/24 03:32:34;;;;;;;6.80;3.40;;;15.30;1.00;;;;;;5113216;28;20183;-55
2021/09/24 03:35:02;;;;;;;5.97;3.77;;;15.20;1.00;;;;;;5115832;28;20443;-55
2021/09/24 03:37:27;;;;;;;10.87;3.70;;;15.10;1.00;;;;;;5100765;28;20420;-54
2021/09/24 03:39:53;;;;;;;4.67;3.93;;;15.20;1.00;;;;;;5109261;28;20436;-54
2021/09/24 03:42:19;;;;;;;8.00;3.63;;;15.20;1.00;;;;;;5112719;28;20248;-55
2021/09/24 03:44:45;;;;;;;12.93;3.60;;;15.30;1.00;;;;;;5107980;28;20654;-53
2021/09/24 03:47:10;;;;;;;7.33;3.90;;;15.30;1.00;;;;;;5115542;28;20191;-54
2021/09/24 03:49:36;;;;;;;7.20;4.00;;;15.30;1.00;;;;;;5102644;28;20733;-55
2021/09/24 03:52:03;;;;;;;13.37;4.70;;;15.40;1.00;;;;;;5113608;28;20198;-54
2021/09/24 03:54:29;;;;;;;7.93;4.30;;;15.50;1.00;;;;;;5098718;28;20223;-55
2021/09/24 03:56:55;;;;;;;8.33;5.20;;;15.50;1.00;;;;;;5095752;28;20486;-55
2021/09/24 03:59:21;;;;;;;7.87;3.60;;;15.40;1.00;;;;;;5113615;28;20476;-55
2021/09/24 04:01:46;;;;;;;7.10;4.17;;;15.40;1.00;;;;;;5113747;28;20472;-55
2021/09/24 04:04:12;;;;;;;7.57;4.23;;;15.20;1.00;;;;;;5112740;28;20261;-54
2021/09/24 04:06:37;;;;;;;7.50;3.90;;;15.10;1.00;;;;;;5112010;28;20199;-53
2021/09/24 04:09:03;;;;;;;12.77;3.80;;;15.20;1.00;;;;;;5107157;28;20220;-54
2021/09/24 04:11:28;;;;;;;10.17;4.00;;;15.10;1.00;;;;;;5111021;28;20185;-56
2021/09/24 04:13:54;;;;;;;8.70;4.20;;;15.10;1.00;;;;;;5112409;28;20195;-56
2021/09/24 04:16:21;;;;;;;10.67;4.67;;;15.10;1.00;;;;;;5107103;28;20188;-54
2021/09/24 04:18:46;;;;;;;11.83;4.17;;;15.30;1.00;;;;;;5107101;28;20192;-56
2021/09/24 04:21:12;;;;;;;11.33;4.20;;;15.10;1.00;;;;;;5107652;28;20996;-57
2021/09/24 04:23:38;;;;;;;9.47;4.37;;;15.20;1.00;;;;;;5110412;28;20228;-56
2021/09/24 04:26:04;;;;;;;8.63;4.00;;;15.10;1.00;;;;;;5109251;28;20438;-56
2021/09/24 04:28:30;;;;;;;8.80;4.13;;;15.00;1.00;;;;;;5110928;28;20190;-56
2021/09/24 04:30:55;;;;;;;8.43;3.80;;;15.00;1.00;;;;;;5110291;28;20229;-57
2021/09/24 04:33:21;;;;;;;8.07;4.30;;;15.00;1.00;;;;;;5102203;28;20819;-56
2021/09/24 04:35:47;;;;;;;11.57;4.13;;;15.00;1.00;;;;;;5107183;28;20243;-56
2021/09/24 04:38:12;;;;;;;5.77;4.03;;;15.00;1.00;;;;;;5111051;28;20202;-55
2021/09/24 04:40:39;;;;;;;9.27;4.67;;;15.00;1.00;;;;;;5111608;28;20200;-56
2021/09/24 04:43:04;;;;;;;7.40;4.13;;;15.00;1.00;;;;;;5104592;28;20207;-57
2021/09/24 04:45:31;;;;;;;11.07;4.27;;;15.00;1.00;;;;;;5112629;28;20529;-58
2021/09/24 04:47:56;;;;;;;9.23;3.80;;;15.00;1.00;;;;;;5111465;28;20186;-54
2021/09/24 04:50:22;;;;;;;8.07;3.80;;;14.90;1.00;;;;;;5073424;28;1041635;-54
2021/09/24 04:52:47;;;;;;;12.30;4.87;;;14.90;1.00;;;;;;5108962;28;20453;-54
2021/09/24 04:55:13;;;;;;;11.70;4.00;;;14.90;1.00;;;;;;5105266;28;20197;-54
2021/09/24 04:57:38;;;;;;;11.20;3.80;;;14.70;1.00;;;;;;5110084;28;20191;-54
2021/09/24 05:00:07;;;;;;;10.53;3.80;;;14.70;1.00;;;;;;5110831;28;20182;-54
2021/09/24 05:02:33;;;;;;;7.83;3.90;;;14.70;1.00;;;;;;5113050;28;20220;-55
2021/09/24 05:04:59;;;;;;;9.93;3.60;;;14.60;1.00;;;;;;5109746;28;20861;-55
2021/09/24 05:07:24;;;;;;;9.47;4.10;;;14.70;1.00;;;;;;5109922;28;20445;-55
2021/09/24 05:09:49;;;;;;;9.93;3.10;;;14.70;1.00;;;;;;5107411;28;20544;-54
2021/09/24 05:12:15;;;;;;;9.53;4.10;;;14.70;1.00;;;;;;5113140;28;20186;-54
2021/09/24 05:14:41;;;;;;;7.63;3.70;;;14.60;1.00;;;;;;5113206;28;20185;-55
2021/09/24 05:17:06;;;;;;;5.93;2.80;;;14.70;1.00;;;;;;5113060;28;20202;-56
2021/09/24 05:19:32;;;;;;;9.80;3.40;;;14.60;1.00;;;;;;5111784;28;20266;-55
2021/09/24 05:21:58;;;;;;;9.17;3.10;;;14.60;1.00;;;;;;5112856;28;20183;-56
2021/09/24 05:24:24;;;;;;;7.93;3.03;;;14.60;1.00;;;;;;5106968;28;20206;-56
2021/09/24 05:26:49;;;;;;;12.53;4.03;;;14.60;1.00;;;;;;5111633;28;20531;-54
2021/09/24 05:29:15;;;;;;;19.17;4.20;;;14.60;1.00;;;;;;5112907;28;20573;-55
2021/09/24 05:31:41;;;;;;;15.53;3.80;;;14.60;1.00;;;;;;5113146;28;20204;-55
2021/09/24 05:34:06;;;;;;;14.57;4.43;;;14.70;1.00;;;;;;5111217;28;20182;-55
2021/09/24 05:36:32;;;;;;;10.17;3.50;;;14.80;1.00;;;;;;5112579;28;20490;-55
2021/09/24 05:38:58;;;;;;;12.00;3.40;;;14.70;1.00;;;;;;5105673;28;20255;-55
2021/09/24 05:41:24;;;;;;;16.50;4.50;;;14.80;1.00;;;;;;5112393;28;20198;-55
2021/09/24 05:43:50;;;;;;;11.80;3.13;;;14.80;1.00;;;;;;5109415;28;20459;-56
2021/09/24 05:46:17;;;;;;;8.47;3.57;;;14.90;1.00;;;;;;5111867;28;20180;-54
2021/09/24 05:48:42;;;;;;;11.83;3.23;;;14.70;1.00;;;;;;5112004;28;20455;-55
2021/09/24 05:51:08;;;;;;;11.33;3.73;;;14.80;1.00;;;;;;5111724;28;20471;-55
2021/09/24 05:53:34;;;;;;;8.93;3.43;;;14.80;1.00;;;;;;5106403;28;20194;-58
2021/09/24 05:55:59;;;;;;;9.33;3.60;;;14.90;1.00;;;;;;5109904;28;20514;-54
2021/09/24 05:58:25;;;;;;;13.73;5.57;;;15.00;1.00;;;;;;5106901;28;20201;-54
2021/09/24 06:00:50;;;;;;;8.40;2.90;;;15.00;1.00;;;;;;5111867;28;20179;-55
2021/09/24 06:03:16;;;;;;;14.17;3.77;;;14.90;1.00;;;;;;5108196;28;20678;-56
2021/09/24 06:05:42;;;;;;;14.90;4.00;;;14.80;1.00;;;;;;5109087;28;20201;-55
2021/09/24 06:08:07;;;;;;;12.50;4.00;;;14.80;1.00;;;;;;5108347;28;20184;-55
2021/09/24 06:10:33;;;;;;;7.30;3.30;;;14.80;1.00;;;;;;5111945;28;20592;-55
2021/09/24 06:12:58;;;;;;;11.93;4.00;;;14.80;1.00;;;;;;5104808;28;20192;-55
2021/09/24 06:15:25;;;;;;;12.43;3.60;;;14.90;1.00;;;;;;5112038;28;20200;-55
2021/09/24 06:17:51;;;;;;;12.90;3.70;;;14.90;1.00;;;;;;5111947;28;20202;-54
2021/09/24 06:20:18;;;;;;;11.93;3.53;;;14.90;1.00;;;;;;5106811;28;20445;-54
2021/09/24 06:22:44;;;;;;;11.27;4.27;;;15.00;1.00;;;;;;5112063;28;20251;-55
2021/09/24 06:25:11;;;;;;;11.73;4.70;;;15.10;1.00;;;;;;5109948;28;20446;-55
2021/09/24 06:27:37;;;;;;;10.47;3.70;;;15.10;1.00;;;;;;5109016;28;20499;-54
2021/09/24 06:30:05;;;;;;;7.83;3.57;;;15.20;1.00;;;;;;5111991;28;20521;-55
2021/09/24 06:32:31;;;;;;;17.27;3.87;;;15.40;1.00;;;;;;5109433;28;20434;-56
2021/09/24 06:34:57;;;;;;;8.43;3.63;;;15.50;1.00;;;;;;5111705;28;20827;-55
2021/09/24 06:37:22;;;;;;;9.37;4.60;;;15.70;1.00;;;;;;5111549;28;20186;-55
2021/09/24 06:39:48;;;;;;;10.17;3.70;;;15.70;1.00;;;;;;5108441;28;20429;-55
2021/09/24 06:42:14;;;;;;;11.17;3.90;;;15.70;1.00;;;;;;5111873;28;20167;-54
2021/09/24 06:44:40;;;;;;;11.27;3.23;;;15.70;1.00;;;;;;5110894;28;20290;-55
2021/09/24 06:47:06;;;;;;;11.43;3.30;;;15.80;1.00;;;;;;5108096;28;20432;-54
2021/09/24 06:49:32;;;;;;;11.90;3.83;;;15.90;1.00;;;;;;5106575;28;20464;-54
2021/09/24 06:51:58;;;;;;;8.17;3.07;;;15.90;1.00;;;;;;5102044;28;20430;-54
2021/09/24 06:54:24;;;;;;;11.27;3.60;;;15.90;1.00;;;;;;5107228;28;20438;-54
2021/09/24 06:56:50;;;;;;;7.13;2.77;;;15.80;1.00;;;;;;5108166;28;20752;-55
2021/09/24 06:59:16;;;;;;;6.20;3.67;;;15.80;1.00;;;;;;5111868;28;20444;-56
2021/09/24 07:01:43;;;;;;;10.80;3.50;;;15.80;1.00;;;;;;5104309;28;20190;-55
2021/09/24 07:04:08;;;;;;;3.00;2.03;;;15.80;1.00;;;;;;5105736;28;20199;-55
2021/09/24 07:06:34;;;;;;;5.47;2.17;;;15.90;1.00;;;;;;5111802;28;20457;-55
2021/09/24 07:08:59;;;;;;;5.47;2.07;;;15.90;1.00;;;;;;5109823;28;20175;-53
2021/09/24 07:11:27;;;;;;;10.67;3.40;;;15.90;1.00;;;;;;5100646;28;20182;-56
2021/09/24 07:13:52;;;;;;;7.40;2.47;;;16.00;1.00;;;;;;5110231;28;20189;-54
2021/09/24 07:16:18;;;;;;;6.97;2.50;;;16.00;1.00;;;;;;5109761;28;20445;-54
2021/09/24 07:18:44;;;;;;;8.43;2.70;;;16.10;1.00;;;;;;5111874;28;20190;-54
2021/09/24 07:21:10;;;;;;;8.37;2.97;;;16.30;1.00;;;;;;5109044;28;20442;-55
2021/09/24 07:23:36;;;;;;;5.50;2.67;;;16.40;1.00;;;;;;5111188;28;20200;-54
2021/09/24 07:26:02;;;;;;;7.10;2.40;;;16.20;1.00;;;;;;5109680;28;20544;-55
2021/09/24 07:28:28;;;;;;;9.80;2.30;;;16.40;1.00;;;;;;5106169;28;20193;-55
2021/09/24 07:30:53;;;;;;;6.50;2.17;;;16.20;1.00;;;;;;5115359;28;20180;-55
2021/09/24 07:33:19;;;;;;;7.90;2.43;;;16.20;1.00;;;;;;5114386;28;20607;-54
2021/09/24 07:35:44;;;;;;;8.43;2.53;;;16.20;1.00;;;;;;5114932;28;20223;-55
2021/09/24 07:38:10;;;;;;;9.63;3.90;;;16.30;1.00;;;;;;5114032;28;20268;-54
2021/09/24 07:40:35;;;;;;;8.03;2.70;;;16.50;1.00;;;;;;5114613;28;20229;-55
2021/09/24 07:43:01;;;;;;;6.00;3.30;;;16.60;1.00;;;;;;5101302;28;20557;-56
2021/09/24 07:45:27;;;;;;;7.47;2.30;;;16.70;1.00;;;;;;5114770;28;20185;-55
2021/09/24 07:47:52;;;;;;;5.30;2.43;;;16.80;1.00;;;;;;5109483;28;20374;-54
2021/09/24 07:50:18;;;;;;;5.07;2.70;;;16.80;1.00;;;;;;5114539;28;20301;-55
2021/09/24 07:52:44;;;;;;;6.23;1.90;;;16.70;1.00;;;;;;5110748;28;20724;-55
2021/09/24 07:55:11;;;;;;;15.60;2.73;;;16.70;1.00;;;;;;5112935;28;20534;-55
2021/09/24 07:57:37;;;;;;;8.70;2.63;;;16.70;1.00;;;;;;5114463;28;20190;-56
2021/09/24 08:00:05;;;;;;;5.90;2.43;;;16.80;1.00;;;;;;5114488;28;20553;-55
2021/09/24 08:02:31;;;;;;;7.50;2.03;;;17.00;1.00;;;;;;5114595;28;20183;-55
2021/09/24 08:04:57;;;;;;;4.40;2.90;;;17.00;1.00;;;;;;5113395;28;20475;-54
2021/09/24 08:07:23;;;;;;;5.90;2.90;;;17.10;1.00;;;;;;5114955;28;20231;-55
2021/09/24 08:09:49;;;;;;;3.57;2.70;;;17.10;1.00;;;;;;5114327;28;20453;-55
2021/09/24 08:12:14;;;;;;;4.60;2.93;;;16.90;1.00;;;;;;5114176;27;20438;-55
2021/09/24 08:14:40;;;;;;;4.20;3.30;;;17.00;1.00;;;;;;5114080;28;20439;-55
2021/09/24 08:17:06;;;;;;;6.07;3.37;;;17.20;1.00;;;;;;5114158;28;20202;-56
2021/09/24 08:19:31;;;;;;;8.40;3.50;;;17.20;1.00;;;;;;5111749;28;20579;-55
2021/09/24 08:21:57;;;;;;;6.30;3.60;;;17.60;1.00;;;;;;5105301;28;20186;-55
2021/09/24 08:24:22;;;;;;;5.37;3.47;;;18.00;1.00;;;;;;5112184;28;20212;-54
2021/09/24 08:26:48;;;;;;;5.07;4.50;;;18.00;1.00;;;;;;5113894;28;20269;-55
2021/09/24 08:29:13;;;;;;;5.67;3.70;;;18.10;1.00;;;;;;5108280;28;20262;-55
2021/09/24 08:31:40;;;;;;;6.83;3.40;;;18.10;1.00;;;;;;5114186;28;20618;-54
2021/09/24 08:34:05;;;;;;;5.23;3.80;;;18.10;1.00;;;;;;5114005;28;20178;-54
2021/09/24 08:36:33;;;;;;;4.30;2.67;;;18.20;1.00;;;;;;5114319;28;21069;-54
2021/09/24 08:39:00;;;;;;;7.83;3.40;;;17.90;1.00;;;;;;5112965;28;20725;-55
2021/09/24 08:41:28;;;;;;;4.80;3.10;;;17.80;1.00;;;;;;5113764;27;20444;-55
2021/09/24 08:43:54;;;;;;;3.17;2.87;;;17.80;1.00;;;;;;5113350;28;20950;-54
2021/09/24 08:46:20;;;;;;;3.67;2.40;;;18.20;1.00;;;;;;5113420;28;20500;-56
2021/09/24 08:48:46;;;;;;;5.43;2.80;;;18.40;1.00;;;;;;5113365;28;20639;-55
2021/09/24 08:51:12;;;;;;;2.70;2.27;;;18.10;1.00;;;;;;5099283;28;20190;-54
2021/09/24 08:53:38;;;;;;;4.83;2.67;;;18.00;1.00;;;;;;5104488;28;20428;-55
2021/09/24 08:56:05;;;;;;;5.77;2.77;;;17.80;1.00;;;;;;5103368;28;20544;-55
2021/09/24 08:58:31;;;;;;;4.77;2.90;;;17.80;1.00;;;;;;5102435;28;20189;-55
2021/09/24 09:00:58;;;;;;;2.73;2.50;;;17.80;1.00;;;;;;5103878;28;20444;-55
2021/09/24 09:03:34;;;;;;;5.70;2.80;;;18.00;1.00;;;;;;5108512;28;20501;-55
2021/09/24 09:06:03;;;;;;;3.43;2.17;;;18.50;1.00;;;;;;5109541;28;20409;-55
2021/09/24 09:08:30;;;;;;;3.00;2.27;;;18.50;1.00;;;;;;5099960;28;20412;-54
2021/09/24 09:11:00;;;;;;;4.43;2.30;;;18.30;1.00;;;;;;5102041;28;20445;-56
2021/09/24 09:13:33;;;;;;;2.73;2.03;;;18.10;1.00;;;;;;5105580;28;20445;-55
2021/09/24 09:16:00;;;;;;;3.20;2.27;;;16.70;1.00;;;;;;5104649;28;20496;-55
2021/09/24 09:18:31;;;;;;;3.10;2.80;;;18.00;1.00;;;;;;5105987;28;20419;-55
2021/09/24 09:20:57;;;;;;;3.63;2.33;;;18.10;1.00;;;;;;5100907;28;20443;-54
2021/09/24 09:23:24;;;;;;;2.40;2.20;;;18.20;1.00;;;;;;5105924;28;20471;-55
2021/09/24 09:25:50;;;;;;;3.70;2.93;;;18.40;1.00;;;;;;5103378;28;20813;-56
2021/09/24 09:28:36;;;;;;;6.77;2.83;;;18.60;1.00;;;;;;5098888;28;20905;-57
2021/09/24 09:31:25;;;;;;;7.00;2.03;;;18.80;1.00;;;;;;5104887;28;20439;-54
2021/09/24 09:33:57;;;;;;;2.87;1.90;;;18.70;1.00;;;;;;5100159;28;20935;-54
2021/09/24 09:36:28;;;;;;;1.87;1.60;;;18.70;1.00;;;;;;5100549;28;20449;-56
2021/09/24 09:38:54;;;;;;;4.00;2.20;;;18.90;1.00;;;;;;5100694;28;20518;-54
2021/09/24 09:41:22;;;;;;;5.10;1.73;;;18.70;1.00;;;;;;5102516;28;20436;-55
2021/09/24 09:43:53;;;;;;;1.73;1.53;;;18.40;1.00;;;;;;5103764;28;20467;-55
2021/09/24 09:46:25;;;;;;;1.83;1.30;;;18.30;1.00;;;;;;5108499;28;20447;-55
2021/09/24 09:49:09;;;;;;;6.83;1.90;;;18.80;1.00;;;;;;5087750;28;20466;-56
2021/09/24 09:51:37;;;;;;;5.20;1.70;;;19.20;1.00;;;;;;5112410;28;20487;-55
2021/09/24 09:54:04;;;;;;;3.80;1.40;;;19.50;1.00;;;;;;5112712;28;20480;-55
2021/09/24 09:56:38;;;;;;;3.40;1.40;;;19.50;1.00;;;;;;5099908;28;20411;-54
2021/09/24 09:59:28;;;;;;;4.90;1.97;;;19.20;1.00;;;;;;5094333;28;20428;-56
2021/09/24 10:02:15;;;;;;;2.33;1.47;;;19.20;1.00;;;;;;5108122;28;20455;-56
2021/09/24 10:04:43;;;;;;;4.47;2.00;;;19.30;1.00;;;;;;5111863;28;20453;-56
2021/09/24 10:07:17;;;;;;;4.70;2.00;;;19.80;1.00;;;;;;5108325;28;20451;-55
2021/09/24 10:09:43;;;;;;;1.63;1.20;;;20.00;1.00;;;;;;5110674;28;21026;-55
2021/09/24 10:12:18;;;;;;;2.43;1.63;;;19.90;1.00;;;;;;5112530;28;20443;-55
2021/09/24 10:14:43;;;;;;;3.80;1.33;;;19.40;1.00;;;;;;5111841;28;20774;-54
2021/09/24 10:17:09;;;;;;;8.43;2.90;;;19.20;1.00;;;;;;5109708;28;20462;-56
2021/09/24 10:19:34;;;;;;;3.73;1.57;;;19.20;1.00;;;;;;5111760;28;20406;-55
2021/09/24 10:22:00;;;;;;;2.40;1.50;;;19.10;1.00;;;;;;5111968;28;20190;-56
2021/09/24 10:24:25;;;;;;;3.27;1.37;;;18.90;1.00;;;;;;5111683;28;20205;-56
2021/09/24 10:27:03;;;;;;;4.30;1.47;;;18.80;1.00;;;;;;5111187;28;20186;-55
2021/09/24 10:29:36;;;;;;;1.30;1.20;;;19.00;1.00;;;;;;5112086;28;20173;-55
2021/09/24 10:32:26;;;;;;;1.93;1.70;;;17.70;1.00;;;;;;5111988;28;20419;-55
2021/09/24 10:35:11;;;;;;;2.17;1.40;;;19.30;1.00;;;;;;5104835;28;20451;-55
2021/09/24 10:37:39;;;;;;;5.83;1.40;;;19.60;1.00;;;;;;5101550;28;20443;-55
2021/09/24 10:40:21;;;;;;;1.73;1.20;;;19.90;1.00;;;;;;5111789;28;20420;-55
2021/09/24 10:42:48;;;;;;;1.63;1.17;;;20.20;1.00;;;;;;5110493;28;20669;-56
2021/09/24 10:45:35;;;;;;;2.30;1.40;;;20.30;1.00;;;;;;5112362;28;20556;-55
2021/09/24 10:48:16;;;;;;;1.37;1.27;;;20.00;1.00;;;;;;5103848;28;20413;-55
2021/09/24 10:50:47;;;;;;;1.77;1.30;;;19.80;1.00;;;;;;5107942;28;20456;-55
2021/09/24 10:53:19;;;;;;;6.33;1.47;;;19.90;1.00;;;;;;5111792;28;20954;-54
2021/09/24 10:55:53;;;;;;;3.27;1.47;;;19.90;1.00;;;;;;5109374;28;20531;-57
2021/09/24 10:58:30;;;;;;;3.07;1.30;;;19.90;1.00;;;;;;5111317;28;20430;-55
2021/09/24 11:01:01;;;;;;;1.50;1.40;;;20.00;1.00;;;;;;5109151;28;20447;-54
2021/09/24 11:03:30;;;;;;;1.60;1.10;;;20.30;1.00;;;;;;5109925;28;20467;-55
2021/09/24 11:06:06;;;;;;;1.87;1.60;;;20.50;1.00;;;;;;5113248;28;20410;-56
2021/09/24 11:08:38;;;;;;;2.10;1.30;;;20.40;1.00;;;;;;5116130;28;20932;-55
2021/09/24 11:11:22;;;;;;;1.70;1.20;;;20.30;1.00;;;;;;5115623;28;20889;-54
2021/09/24 11:13:52;;;;;;;2.30;1.43;;;20.40;1.00;;;;;;5115710;28;20482;-55
2021/09/24 11:16:44;;;;;;;1.57;1.13;;;20.50;1.00;;;;;;5115581;28;20798;-56
2021/09/24 11:19:51;;;;;;;3.07;1.60;;;20.50;1.00;;;;;;5114083;28;20838;-55
2021/09/24 11:22:19;;;;;;;2.87;1.37;;;20.50;1.00;;;;;;5093292;27;20531;-54
2021/09/24 11:24:59;;;;;;;2.47;1.30;;;20.50;1.00;;;;;;5115845;27;20952;-54
2021/09/24 11:27:36;;;;;;;2.60;1.30;;;20.40;1.00;;;;;;5115521;28;20908;-55
2021/09/24 11:30:02;;;;;;;3.30;1.20;;;20.00;1.00;;;;;;5115497;28;20436;-56
2021/09/24 11:32:43;;;;;;;2.10;1.40;;;19.80;1.00;;;;;;5115682;28;20410;-55
2021/09/24 11:35:11;;;;;;;1.97;1.10;;;19.90;1.00;;;;;;5115255;28;20415;-55
2021/09/24 11:37:40;;;;;;;1.50;1.40;;;19.90;1.00;;;;;;5115489;28;20931;-55
2021/09/24 11:40:09;;;;;;;1.50;1.40;;;19.70;1.00;;;;;;5115129;28;20489;-55
2021/09/24 11:42:44;;;;;;;1.60;1.17;;;19.60;1.00;;;;;;5115253;28;20455;-56
2021/09/24 11:45:14;;;;;;;3.17;2.03;;;19.80;1.00;;;;;;5114728;28;20510;-55
2021/09/24 11:47:43;;;;;;;1.90;1.30;;;19.80;1.00;;;;;;5111496;28;20426;-56
2021/09/24 11:50:13;;;;;;;2.73;1.57;;;19.90;1.00;;;;;;5114729;28;20470;-55
2021/09/24 11:52:52;;;;;;;1.90;1.30;;;20.00;1.00;;;;;;5114773;27;20424;-56
2021/09/24 11:55:19;;;;;;;1.37;1.17;;;20.10;1.00;;;;;;5114433;28;20467;-55
2021/09/24 11:58:04;;;;;;;1.30;1.20;;;20.10;1.00;;;;;;5115033;28;20406;-55
2021/09/24 12:00:37;;;;;;;1.80;1.40;;;20.10;1.00;;;;;;5114629;28;20453;-55
2021/09/24 12:03:17;;;;;;;2.63;1.57;;;20.10;1.00;;;;;;5114587;28;20437;-55
2021/09/24 12:05:49;;;;;;;4.00;2.07;;;20.10;1.00;;;;;;5114910;28;20439;-55
2021/09/24 12:08:16;;;;;;;1.87;1.77;;;20.10;1.00;;;;;;5112067;28;20895;-54
2021/09/24 12:10:42;;;;;;;2.03;1.93;;;20.00;1.00;;;;;;5114741;28;20417;-55
2021/09/24 12:13:15;;;;;;;3.17;2.63;;;20.00;1.00;;;;;;5114394;28;20488;-55
2021/09/24 12:15:56;;;;;;;2.10;1.90;;;20.00;1.00;;;;;;5114200;28;20457;-55
2021/09/24 12:18:40;;;;;;;4.50;3.30;;;20.00;1.00;;;;;;5114309;28;20488;-55
2021/09/24 12:21:06;;;;;;;2.50;2.30;;;20.00;1.00;;;;;;5114242;28;20773;-56
2021/09/24 12:23:32;;;;;;;4.47;3.10;;;20.20;1.00;;;;;;5109618;28;20436;-55
2021/09/24 12:26:00;;;;;;;2.07;1.90;;;20.40;1.00;;;;;;5114079;28;20629;-55
2021/09/24 12:28:25;;;;;;;2.27;1.80;;;21.70;1.00;;;;;;5109644;28;20277;-56
2021/09/24 12:30:51;;;;;;;2.03;1.87;;;20.10;1.00;;;;;;5114051;28;20542;-54
2021/09/24 12:33:18;;;;;;;4.63;1.70;;;20.10;1.00;;;;;;5113975;28;20189;-56
2021/09/24 12:36:05;;;;;;;3.10;1.80;;;20.00;1.00;;;;;;5114398;28;20187;-54
2021/09/24 12:38:33;;;;;;;2.10;1.23;;;19.90;1.00;;;;;;5111213;28;20408;-55
2021/09/24 12:41:36;;;;;;;1.57;1.40;;;19.90;1.00;;;;;;5114196;28;20436;-54
2021/09/24 12:44:01;;;;;;;1.90;1.67;;;19.70;1.00;;;;;;5097733;28;20470;-55
2021/09/24 12:46:48;;;;;;;1.60;1.40;;;19.80;1.00;;;;;;5113671;28;20471;-55
2021/09/24 12:49:15;;;;;;;1.97;1.20;;;20.00;1.00;;;;;;5102073;28;20214;-54
2021/09/24 12:51:42;;;;;;;3.90;1.73;;;20.00;1.00;;;;;;5113589;28;20411;-54
2021/09/24 12:54:09;;;;;;;3.57;1.53;;;20.00;1.00;;;;;;5114038;28;20493;-55
2021/09/24 12:56:35;;;;;;;2.43;1.60;;;19.90;1.00;;;;;;5103176;28;20791;-54
2021/09/24 12:59:02;;;;;;;3.10;1.53;;;19.90;1.00;;;;;;5113562;28;20433;-54